createdAt,value
2023-04-21T00:04:45.807Z,54.90
2023-04-21T00:09:47.432Z,51.85
2023-04-21T00:14:48.769Z,56.42
2023-04-21T00:19:50.425Z,55.50
2023-04-21T00:24:51.933Z,61.08
2023-04-21T00:29:53.248Z,60.95
2023-04-21T00:34:54.557Z,61.45
2023-04-21T00:39:55.864Z,62.13
2023-04-21T00:44:57.271Z,57.00
2023-04-21T00:49:59.099Z,59.55
2023-04-21T00:55:00.874Z,68.13
2023-04-21T01:00:03.385Z,64.68
2023-04-21T01:05:08.911Z,63.13
2023-04-21T01:10:10.600Z,69.25
2023-04-21T01:15:13.464Z,70.55
2023-04-21T01:20:15.564Z,67.70
2023-04-21T01:25:18.428Z,65.80
2023-04-21T01:30:19.760Z,69.40
2023-04-21T01:35:21.132Z,63.08
2023-04-21T01:40:22.517Z,60.75
2023-04-21T01:45:23.896Z,63.70
2023-04-21T01:50:25.309Z,74.00
2023-04-21T01:55:26.670Z,78.30
2023-04-21T02:00:28.156Z,77.53
2023-04-21T02:05:29.534Z,74.72
2023-04-21T02:10:30.979Z,74.25
2023-04-21T02:15:32.415Z,78.25
2023-04-21T02:20:33.842Z,77.63
2023-04-21T02:25:35.301Z,74.22
2023-04-21T02:30:36.645Z,72.03
2023-04-21T02:35:37.979Z,73.05
2023-04-21T02:40:39.416Z,74.35
2023-04-21T02:45:40.779Z,75.25
2023-04-21T02:50:42.870Z,70.28
2023-04-21T02:55:44.296Z,64.63
2023-04-21T03:00:45.840Z,72.63
2023-04-21T03:05:47.184Z,72.55
2023-04-21T03:10:48.515Z,83.60
2023-04-21T03:15:51.046Z,73.35
2023-04-21T03:20:52.726Z,70.47
2023-04-21T03:25:54.179Z,68.75
2023-04-21T03:30:55.502Z,73.93
2023-04-21T03:35:56.852Z,71.13
2023-04-21T03:40:58.218Z,76.45
2023-04-21T03:45:59.611Z,71.18
2023-04-21T03:51:01.014Z,69.20
2023-04-21T03:56:02.353Z,71.65
2023-04-21T04:01:07.419Z,68.07
2023-04-21T04:06:08.805Z,66.75
2023-04-21T04:11:10.155Z,57.25
2023-04-21T04:16:11.630Z,50.70
2023-04-21T04:21:13.025Z,62.40
2023-04-21T04:26:14.489Z,58.67
2023-04-21T04:31:17.136Z,60.10
2023-04-21T04:36:18.733Z,54.78
2023-04-21T04:41:20.930Z,57.60
2023-04-21T04:46:22.362Z,56.28
2023-04-21T04:51:23.807Z,54.15
2023-04-21T04:56:25.360Z,58.47
2023-04-21T05:01:30.521Z,59.33
2023-04-21T05:06:32.381Z,63.08
2023-04-21T05:11:33.740Z,58.03
2023-04-21T05:16:35.216Z,63.53
2023-04-21T05:21:36.567Z,56.10
2023-04-21T05:26:37.899Z,59.03
2023-04-21T05:31:39.296Z,59.13
2023-04-21T05:36:44.136Z,53.35
2023-04-21T05:41:45.655Z,53.70
2023-04-21T05:46:46.983Z,46.08
2023-04-21T05:51:48.326Z,47.92
2023-04-21T05:56:49.653Z,54.15
2023-04-21T06:01:51.082Z,58.47
2023-04-21T06:06:52.433Z,48.38
2023-04-21T06:11:53.797Z,56.67
2023-04-21T06:16:55.247Z,57.13
2023-04-21T06:21:57.328Z,49.05
2023-04-21T06:27:07.765Z,57.10
2023-04-21T06:32:10.210Z,48.42
2023-04-21T06:37:11.643Z,47.97
2023-04-21T06:42:13.058Z,48.08
2023-04-21T06:47:16.604Z,46.83
2023-04-21T06:52:19.606Z,41.45
2023-04-21T06:57:21.592Z,41.25
2023-04-21T07:02:23.030Z,49.80
2023-04-21T07:07:24.446Z,45.50
2023-04-21T07:12:26.008Z,41.85
2023-04-21T07:17:27.582Z,31.83
2023-04-21T07:22:29.041Z,35.45
2023-04-21T07:27:30.490Z,33.67
2023-04-21T07:32:32.361Z,33.28
2023-04-21T07:37:33.749Z,36.40
2023-04-21T07:42:35.483Z,36.65
2023-04-21T07:47:36.886Z,33.50
2023-04-21T07:52:38.306Z,39.42
2023-04-21T07:57:40.134Z,28.98
2023-04-21T08:02:41.911Z,31.23
2023-04-21T08:07:43.531Z,32.33
2023-04-21T08:12:44.880Z,35.55
2023-04-21T08:17:46.289Z,28.67
2023-04-21T08:22:48.544Z,29.83
2023-04-21T08:27:50.039Z,30.02
2023-04-21T08:32:51.451Z,37.28
2023-04-21T08:37:53.576Z,37.22
2023-04-21T08:42:56.433Z,39.00
2023-04-21T08:48:01.306Z,39.55
2023-04-21T08:53:02.845Z,33.80
2023-04-21T08:58:04.905Z,37.88
2023-04-21T09:03:19.249Z,35.90
2023-04-21T09:08:26.836Z,30.60
2023-04-21T09:13:37.807Z,28.45
2023-04-21T09:18:40.304Z,27.10
2023-04-21T09:23:52.710Z,26.25
2023-04-21T09:28:54.053Z,28.80
2023-04-21T09:34:00.236Z,28.02
2023-04-21T09:44:08.763Z,23.50
2023-04-21T09:49:13.623Z,23.17
2023-04-21T09:54:29.770Z,22.20
2023-04-21T09:59:40.592Z,26.47
2023-04-21T10:04:43.906Z,28.30
2023-04-21T10:09:50.949Z,22.00
2023-04-21T10:14:53.516Z,23.00
2023-04-21T10:19:57.561Z,23.55
2023-04-21T10:25:01.332Z,22.55
2023-04-21T10:30:23.146Z,23.17
2023-04-21T10:35:24.665Z,21.25
2023-04-21T10:45:40.904Z,18.60
2023-04-21T10:50:44.231Z,22.33
2023-04-21T10:55:48.939Z,20.52
2023-04-21T11:00:55.527Z,29.30
2023-04-21T11:05:56.942Z,21.80
2023-04-21T11:10:58.292Z,23.05
2023-04-21T11:16:05.676Z,23.13
2023-04-21T11:21:18.641Z,18.42
2023-04-21T11:26:33.632Z,32.28
2023-04-21T11:31:36.904Z,20.15
2023-04-21T11:36:43.496Z,18.20
2023-04-21T11:41:46.555Z,19.25
2023-04-21T11:46:48.444Z,16.60
2023-04-21T11:51:50.231Z,19.60
2023-04-21T11:56:54.215Z,15.98
2023-04-21T12:01:55.652Z,18.65
2023-04-21T12:07:02.031Z,16.55
2023-04-21T12:12:05.310Z,17.88
2023-04-21T12:17:06.907Z,16.20
2023-04-21T12:22:12.556Z,14.88
2023-04-21T12:27:14.448Z,14.43
2023-04-21T12:32:15.815Z,18.52
2023-04-21T12:37:18.548Z,15.23
2023-04-21T12:42:19.866Z,14.43
2023-04-21T12:47:21.299Z,14.63
2023-04-21T12:52:22.685Z,15.95
2023-04-21T12:57:24.093Z,14.32
2023-04-21T13:02:25.647Z,12.55
2023-04-21T13:07:31.173Z,13.15
2023-04-21T13:12:33.205Z,17.27
2023-04-21T13:17:34.548Z,11.82
2023-04-21T13:22:36.016Z,13.85
2023-04-21T13:27:39.810Z,11.40
2023-04-21T13:32:42.292Z,12.95
2023-04-21T13:37:43.686Z,9.98
2023-04-21T13:42:45.053Z,9.32
2023-04-21T13:47:46.609Z,8.20
2023-04-21T13:52:47.987Z,9.77
2023-04-21T13:57:49.703Z,10.25
2023-04-21T14:02:51.250Z,6.63
2023-04-21T14:07:52.913Z,7.40
2023-04-21T14:12:54.385Z,6.50
2023-04-21T14:17:56.517Z,8.10
2023-04-21T14:22:57.957Z,4.95
2023-04-21T14:27:59.910Z,6.93
2023-04-21T14:33:03.183Z,5.07
2023-04-21T14:38:04.724Z,7.07
2023-04-21T14:43:06.182Z,6.90
2023-04-21T14:48:07.654Z,7.65
2023-04-21T14:53:09.079Z,7.47
2023-04-21T14:58:10.460Z,5.18
2023-04-21T15:03:12.120Z,6.13
2023-04-21T15:08:17.955Z,7.45
2023-04-21T15:13:19.351Z,7.90
2023-04-21T15:18:21.054Z,5.25
2023-04-21T15:23:22.417Z,6.05
2023-04-21T15:28:23.799Z,6.00
2023-04-21T15:33:25.238Z,4.13
2023-04-21T15:38:26.799Z,4.18
2023-04-21T15:43:28.723Z,4.88
2023-04-21T15:48:30.829Z,4.57
2023-04-21T15:53:33.971Z,7.38
2023-04-21T15:58:35.417Z,4.80
2023-04-21T16:03:37.216Z,5.53
2023-04-21T16:08:38.707Z,4.28
2023-04-21T16:13:40.172Z,5.00
2023-04-21T16:18:41.557Z,5.47
2023-04-21T16:23:42.979Z,4.03
2023-04-21T16:28:44.336Z,5.60
2023-04-21T16:33:45.735Z,8.23
2023-04-21T16:38:47.243Z,4.38
2023-04-21T16:43:48.715Z,3.58
2023-04-21T16:48:50.566Z,5.07
2023-04-21T16:53:52.166Z,3.92
2023-04-21T16:58:53.622Z,4.75
2023-04-21T17:03:55.102Z,4.95
2023-04-21T17:08:59.708Z,4.25
2023-04-21T17:14:01.581Z,5.28
2023-04-21T17:19:02.991Z,6.15
2023-04-21T17:24:04.425Z,6.28
2023-04-21T17:29:06.456Z,6.13
2023-04-21T17:34:07.831Z,8.05
2023-04-21T17:39:10.254Z,5.53
2023-04-21T17:44:11.932Z,4.30
2023-04-21T17:49:13.305Z,7.38
2023-04-21T17:54:14.647Z,4.07
2023-04-21T17:59:16.270Z,8.50
2023-04-21T18:04:18.041Z,4.68
2023-04-21T18:09:20.780Z,8.45
2023-04-21T18:14:22.211Z,5.45
2023-04-21T18:19:23.588Z,6.70
2023-04-21T18:24:25.203Z,1.30
2023-04-21T18:29:26.580Z,1.20
2023-04-21T18:34:27.958Z,1.40
2023-04-21T18:39:29.443Z,4.82
2023-04-21T18:44:31.251Z,2.95
2023-04-21T18:49:33.041Z,2.83
2023-04-21T18:54:35.047Z,2.38
2023-04-21T18:59:36.785Z,3.17
2023-04-21T19:04:38.363Z,4.07
2023-04-21T19:09:39.950Z,2.78
2023-04-21T19:14:47.003Z,3.58
2023-04-21T19:19:49.552Z,3.92
2023-04-21T19:24:51.375Z,3.15
2023-04-21T19:29:52.715Z,3.03
2023-04-21T19:34:54.129Z,2.53
2023-04-21T19:39:55.909Z,4.38
2023-04-21T19:44:57.389Z,3.28
2023-04-21T19:49:58.784Z,3.92
2023-04-21T19:55:00.246Z,9.70
2023-04-21T20:00:01.846Z,3.65
2023-04-21T20:05:03.509Z,7.15
2023-04-21T20:10:06.128Z,5.00
2023-04-21T20:15:08.207Z,5.10
2023-04-21T20:20:10.314Z,5.60
2023-04-21T20:25:12.742Z,5.25
2023-04-21T20:30:14.334Z,6.82
2023-04-21T20:35:16.920Z,4.45
2023-04-21T20:40:18.697Z,4.43
2023-04-21T20:45:20.139Z,6.55
2023-04-21T20:50:23.276Z,7.43
2023-04-21T20:55:24.790Z,6.18
2023-04-21T21:00:26.513Z,6.45
2023-04-21T21:05:30.213Z,6.43
2023-04-21T21:10:31.636Z,5.53
2023-04-21T21:15:33.857Z,6.97
2023-04-21T21:20:35.269Z,9.43
2023-04-21T21:25:36.632Z,11.13
2023-04-21T21:30:37.960Z,9.30
2023-04-21T21:35:39.343Z,5.53
2023-04-21T21:40:40.963Z,7.90
2023-04-21T21:45:42.358Z,9.18
2023-04-21T21:50:43.720Z,7.57
2023-04-21T21:55:45.080Z,8.35
2023-04-21T22:00:51.564Z,7.15
2023-04-21T22:05:53.112Z,11.50
2023-04-21T22:10:54.514Z,9.02
2023-04-21T22:15:56.493Z,9.07
2023-04-21T22:20:58.949Z,9.02
2023-04-21T22:26:00.432Z,9.07
2023-04-21T22:31:01.915Z,8.15
2023-04-21T22:36:03.581Z,11.82
2023-04-21T22:41:05.144Z,7.50
2023-04-21T22:46:06.823Z,9.50
2023-04-21T22:51:08.141Z,10.20
2023-04-21T22:56:09.516Z,8.65
2023-04-21T23:01:10.982Z,11.43
2023-04-21T23:06:13.287Z,11.27
2023-04-21T23:11:14.646Z,8.60
2023-04-21T23:16:16.354Z,8.93
2023-04-21T23:21:17.819Z,11.07
2023-04-21T23:26:19.245Z,9.05
2023-04-21T23:31:20.714Z,12.32
2023-04-21T23:36:22.093Z,9.75
2023-04-21T23:41:23.579Z,8.57
2023-04-21T23:46:24.918Z,12.23
2023-04-21T23:51:27.095Z,7.88
2023-04-21T23:56:28.986Z,11.48
